Time;durP1;ratioP1;P1;durP2;ratioP2;P2;SDS_P1;SDS_P2;PMS_P1;PMS_P2;Temp;Humidity;BMP_temperature;BMP_pressure;BME280_temperature;BME280_humidity;BME280_pressure;Samples;Min_cycle;Max_cycle;Signal;HPM_P1;HPM_P2
2022/04/06 00:00:25;;;;;;;5.10;3.00;;;;;;;;;;5037299;28;20032;-75
2022/04/06 00:02:50;;;;;;;4.18;2.75;;;;;;;;;;5036200;28;20029;-76
2022/04/06 00:05:16;;;;;;;3.33;2.58;;;;;;;;;;5037596;28;20029;-76
2022/04/06 00:07:42;;;;;;;3.60;2.85;;;;;;;;;;5036434;28;20036;-75
2022/04/06 00:10:09;;;;;;;4.32;2.97;;;;;;;;;;5036133;28;20471;-75
2022/04/06 00:12:35;;;;;;;3.20;2.70;;;;;;;;;;5037334;28;20106;-75
2022/04/06 00:15:01;;;;;;;3.40;2.95;;;;;;;;;;5037383;28;20029;-77
2022/04/06 00:17:26;;;;;;;5.68;2.72;;;;;;;;;;5037324;28;20025;-75
2022/04/06 00:19:52;;;;;;;2.95;2.45;;;;;;;;;;5036606;28;20489;-76
2022/04/06 00:22:17;;;;;;;3.45;2.60;;;;;;;;;;5037610;28;20026;-76
2022/04/06 00:24:43;;;;;;;3.03;2.35;;;;;;;;;;5037487;28;20029;-75
2022/04/06 00:27:09;;;;;;;4.60;3.10;;;;;;;;;;5037342;28;20032;-75
2022/04/06 00:29:34;;;;;;;3.95;2.85;;;;;;;;;;5037084;28;20052;-75
2022/04/06 00:31:59;;;;;;;4.30;2.92;;;;;;;;;;5037347;28;20033;-76
2022/04/06 00:35:28;;;;;;;6.57;2.95;;;;;;;;;;5037460;28;20493;-75
2022/04/06 00:37:10;;;;;;;3.63;2.72;;;;;;;;;;5036942;28;20404;-75
2022/04/06 00:39:35;;;;;;;4.03;2.90;;;;;;;;;;5035944;28;20013;-76
2022/04/06 00:42:00;;;;;;;4.63;3.20;;;;;;;;;;5036886;28;20060;-73
2022/04/06 00:44:28;;;;;;;5.85;2.88;;;;;;;;;;5037160;28;20032;-76
2022/04/06 00:46:53;;;;;;;4.38;3.10;;;;;;;;;;5035860;28;20029;-74
2022/04/06 00:49:18;;;;;;;6.07;3.03;;;;;;;;;;5035751;28;20494;-75
2022/04/06 00:51:46;;;;;;;5.17;2.93;;;;;;;;;;5036473;28;20160;-76
2022/04/06 00:54:13;;;;;;;4.57;3.13;;;;;;;;;;5036187;28;20263;-76
2022/04/06 00:56:39;;;;;;;4.32;3.20;;;;;;;;;;5035636;28;20079;-76
2022/04/06 00:59:05;;;;;;;4.38;3.20;;;;;;;;;;5036828;28;20041;-76
2022/04/06 01:01:30;;;;;;;4.63;3.47;;;;;;;;;;5035190;28;20489;-76
2022/04/06 01:03:56;;;;;;;5.25;3.17;;;;;;;;;;5036838;28;20037;-76
2022/04/06 01:06:21;;;;;;;5.85;3.55;;;;;;;;;;5036232;28;20368;-75
2022/04/06 01:08:47;;;;;;;4.57;3.38;;;;;;;;;;5036533;28;20028;-75
2022/04/06 01:11:12;;;;;;;3.88;2.97;;;;;;;;;;5036077;28;20486;-75
2022/04/06 01:13:38;;;;;;;4.03;3.38;;;;;;;;;;5035969;28;20478;-76
2022/04/06 01:16:04;;;;;;;4.25;3.25;;;;;;;;;;5036040;28;20053;-75
2022/04/06 01:18:32;;;;;;;4.68;3.67;;;;;;;;;;5036076;28;20068;-76
2022/04/06 01:20:58;;;;;;;4.45;3.00;;;;;;;;;;5035875;28;20105;-76
2022/04/06 01:23:24;;;;;;;5.32;3.55;;;;;;;;;;5035785;28;20060;-75
2022/04/06 01:25:49;;;;;;;5.68;3.50;;;;;;;;;;5034495;28;20431;-75
2022/04/06 01:28:15;;;;;;;4.65;3.50;;;;;;;;;;5035769;28;20112;-75
2022/04/06 01:30:40;;;;;;;4.95;3.30;;;;;;;;;;5034772;28;20029;-75
2022/04/06 01:33:06;;;;;;;4.90;3.95;;;;;;;;;;5036345;28;20021;-75
2022/04/06 01:35:31;;;;;;;6.05;3.70;;;;;;;;;;5034750;28;20024;-75
2022/04/06 01:37:56;;;;;;;4.70;3.72;;;;;;;;;;5037148;28;20100;-75
2022/04/06 01:40:24;;;;;;;5.60;4.00;;;;;;;;;;5036406;28;20032;-75
2022/04/06 01:42:50;;;;;;;5.85;4.20;;;;;;;;;;5036510;28;20266;-76
2022/04/06 01:45:15;;;;;;;6.28;4.07;;;;;;;;;;5036795;28;20079;-75
2022/04/06 01:47:40;;;;;;;7.13;3.78;;;;;;;;;;5035466;28;20033;-75
2022/04/06 01:52:50;;;;;;;5.25;3.95;;;;;;;;;;5038454;28;20040;-75
2022/04/06 01:55:15;;;;;;;5.90;4.13;;;;;;;;;;5038106;28;20029;-75
2022/04/06 01:57:43;;;;;;;7.28;4.40;;;;;;;;;;5037928;28;20029;-75
2022/04/06 02:00:17;;;;;;;6.05;4.45;;;;;;;;;;5037400;28;20104;-75
2022/04/06 02:02:47;;;;;;;7.05;4.38;;;;;;;;;;5035604;28;20159;-75
2022/04/06 02:05:13;;;;;;;6.20;4.28;;;;;;;;;;5035342;28;20120;-76
2022/04/06 02:07:39;;;;;;;7.90;4.47;;;;;;;;;;5035125;28;20096;-76
2022/04/06 02:10:04;;;;;;;6.13;4.57;;;;;;;;;;5034946;28;20148;-76
2022/04/06 02:12:32;;;;;;;6.75;4.88;;;;;;;;;;5033346;28;20070;-76
2022/04/06 02:14:57;;;;;;;10.82;5.22;;;;;;;;;;5034604;28;20025;-77
2022/04/06 02:17:25;;;;;;;8.23;5.72;;;;;;;;;;5034349;28;20025;-76
2022/04/06 02:19:50;;;;;;;7.07;5.43;;;;;;;;;;5034796;28;20125;-76
2022/04/06 02:22:18;;;;;;;7.97;5.40;;;;;;;;;;5033565;28;20036;-76
2022/04/06 02:24:43;;;;;;;7.57;5.57;;;;;;;;;;5035441;28;20079;-75
2022/04/06 02:27:08;;;;;;;7.85;5.68;;;;;;;;;;5035142;28;20021;-76
2022/04/06 02:29:35;;;;;;;8.82;6.05;;;;;;;;;;5035153;28;20410;-77
2022/04/06 02:32:00;;;;;;;8.25;5.55;;;;;;;;;;5035448;28;20386;-76
2022/04/06 02:34:25;;;;;;;7.33;5.47;;;;;;;;;;5035642;28;20052;-76
2022/04/06 02:36:50;;;;;;;8.87;6.23;;;;;;;;;;5034984;28;20254;-75
2022/04/06 02:39:16;;;;;;;8.50;5.68;;;;;;;;;;5034787;28;20280;-76
2022/04/06 02:41:41;;;;;;;7.87;5.60;;;;;;;;;;5035662;28;20441;-77
2022/04/06 02:44:06;;;;;;;8.63;5.55;;;;;;;;;;5034869;28;20747;-76
2022/04/06 02:46:32;;;;;;;7.82;5.45;;;;;;;;;;5034799;28;20030;-77
2022/04/06 02:48:58;;;;;;;9.07;5.75;;;;;;;;;;5034228;28;20027;-76
2022/04/06 02:51:23;;;;;;;7.75;5.50;;;;;;;;;;5034207;28;20429;-75
2022/04/06 02:53:48;;;;;;;7.10;5.30;;;;;;;;;;5034721;28;20083;-76
2022/04/06 02:56:14;;;;;;;7.90;5.47;;;;;;;;;;5034868;28;20029;-76
2022/04/06 02:58:40;;;;;;;8.60;5.45;;;;;;;;;;5035490;28;20398;-76
2022/04/06 03:01:06;;;;;;;8.13;5.88;;;;;;;;;;5036177;28;20025;-75
2022/04/06 03:03:31;;;;;;;7.32;5.38;;;;;;;;;;5036431;28;20052;-75
2022/04/06 03:05:56;;;;;;;10.60;5.80;;;;;;;;;;5036483;28;20036;-76
2022/04/06 03:08:21;;;;;;;7.57;5.65;;;;;;;;;;5036006;28;20031;-75
2022/04/06 03:10:46;;;;;;;6.80;5.15;;;;;;;;;;5034970;28;20506;-76
2022/04/06 03:13:12;;;;;;;7.87;5.23;;;;;;;;;;5034209;28;20027;-75
2022/04/06 03:15:37;;;;;;;6.93;4.97;;;;;;;;;;5034409;28;20322;-75
2022/04/06 03:18:06;;;;;;;6.47;4.90;;;;;;;;;;5033068;28;20113;-75
2022/04/06 03:20:31;;;;;;;10.70;5.40;;;;;;;;;;5033716;28;20017;-75
2022/04/06 03:22:56;;;;;;;7.78;5.25;;;;;;;;;;5034044;28;20501;-76
2022/04/06 03:25:21;;;;;;;6.97;5.10;;;;;;;;;;5033857;28;20021;-75
2022/04/06 03:27:47;;;;;;;7.00;5.27;;;;;;;;;;5033768;28;20026;-74
2022/04/06 03:30:13;;;;;;;8.80;5.38;;;;;;;;;;5032399;28;20298;-76
2022/04/06 03:32:39;;;;;;;9.27;5.22;;;;;;;;;;5033560;28;20032;-77
2022/04/06 03:35:05;;;;;;;8.60;4.95;;;;;;;;;;5033571;28;20036;-76
2022/04/06 03:37:31;;;;;;;6.22;4.72;;;;;;;;;;5034170;28;20040;-76
2022/04/06 03:39:56;;;;;;;8.45;4.82;;;;;;;;;;5035427;28;20025;-76
2022/04/06 03:42:21;;;;;;;7.33;5.00;;;;;;;;;;5034784;28;20017;-76
2022/04/06 03:44:46;;;;;;;7.65;4.82;;;;;;;;;;5035311;28;20262;-76
2022/04/06 03:47:12;;;;;;;6.10;4.07;;;;;;;;;;5034271;28;20529;-76
2022/04/06 03:49:37;;;;;;;7.28;4.38;;;;;;;;;;5034336;28;20378;-76
2022/04/06 03:52:02;;;;;;;5.88;4.63;;;;;;;;;;5033869;28;20108;-75
2022/04/06 03:54:28;;;;;;;6.97;4.65;;;;;;;;;;5035688;28;20029;-76
2022/04/06 03:56:54;;;;;;;7.83;4.60;;;;;;;;;;5034581;28;20505;-75
2022/04/06 03:59:19;;;;;;;6.05;4.03;;;;;;;;;;5033863;28;20304;-75
2022/04/06 04:01:44;;;;;;;8.15;4.50;;;;;;;;;;5032092;28;20021;-75
2022/04/06 04:04:10;;;;;;;7.27;4.30;;;;;;;;;;5033253;28;20045;-76
2022/04/06 04:06:36;;;;;;;7.22;4.40;;;;;;;;;;5033407;28;20263;-76
2022/04/06 04:09:02;;;;;;;8.13;4.75;;;;;;;;;;5033508;28;20467;-76
2022/04/06 04:11:28;;;;;;;5.88;4.43;;;;;;;;;;5033257;28;20117;-75
2022/04/06 04:13:53;;;;;;;6.28;4.18;;;;;;;;;;5034590;28;20505;-76
2022/04/06 04:16:18;;;;;;;7.77;4.33;;;;;;;;;;5033309;28;20048;-74
2022/04/06 04:18:43;;;;;;;6.47;4.57;;;;;;;;;;5033411;28;20254;-75
2022/04/06 04:23:52;;;;;;;5.47;4.00;;;;;;;;;;5034835;28;20265;-76
2022/04/06 04:26:17;;;;;;;7.03;4.67;;;;;;;;;;5035531;28;20522;-75
2022/04/06 04:28:43;;;;;;;6.47;4.75;;;;;;;;;;5036794;28;20797;-76
2022/04/06 04:31:08;;;;;;;7.30;4.50;;;;;;;;;;5038326;28;20026;-77
2022/04/06 04:33:33;;;;;;;7.50;4.93;;;;;;;;;;5037500;28;20489;-75
2022/04/06 04:35:59;;;;;;;6.32;4.45;;;;;;;;;;5036639;28;20025;-76
2022/04/06 04:38:24;;;;;;;6.38;4.50;;;;;;;;;;5038204;28;20029;-76
2022/04/06 04:40:49;;;;;;;8.48;5.13;;;;;;;;;;5038427;28;20075;-76
2022/04/06 04:43:15;;;;;;;5.70;4.20;;;;;;;;;;5038566;28;20529;-75
2022/04/06 04:45:40;;;;;;;7.60;4.88;;;;;;;;;;5038298;28;20041;-75
2022/04/06 04:48:05;;;;;;;7.95;4.63;;;;;;;;;;5038359;28;20437;-75
2022/04/06 04:50:30;;;;;;;7.05;4.72;;;;;;;;;;5037959;28;20497;-76
2022/04/06 04:52:56;;;;;;;7.75;4.78;;;;;;;;;;5037709;28;20025;-76
2022/04/06 04:55:21;;;;;;;5.60;4.43;;;;;;;;;;5037673;28;20165;-77
2022/04/06 04:57:46;;;;;;;7.25;4.55;;;;;;;;;;5036476;28;20061;-76
2022/04/06 05:00:12;;;;;;;6.30;4.25;;;;;;;;;;5036517;28;20033;-75
2022/04/06 05:02:37;;;;;;;8.52;3.80;;;;;;;;;;5036081;28;20581;-75
2022/04/06 05:05:06;;;;;;;6.90;4.70;;;;;;;;;;5035385;28;20433;-74
2022/04/06 05:07:33;;;;;;;6.30;3.92;;;;;;;;;;5034920;28;20039;-74
2022/04/06 05:09:58;;;;;;;6.97;4.07;;;;;;;;;;5036405;28;20109;-74
2022/04/06 05:12:26;;;;;;;6.17;4.37;;;;;;;;;;5036279;28;20068;-74
2022/04/06 05:14:51;;;;;;;7.30;4.00;;;;;;;;;;5036157;28;20266;-74
2022/04/06 05:17:17;;;;;;;6.87;4.10;;;;;;;;;;5035635;28;20429;-75
2022/04/06 05:19:42;;;;;;;6.80;4.07;;;;;;;;;;5035984;28;20627;-74
2022/04/06 05:22:07;;;;;;;6.20;4.32;;;;;;;;;;5036405;28;20076;-74
2022/04/06 05:24:33;;;;;;;7.22;3.85;;;;;;;;;;5035639;28;20029;-74
2022/04/06 05:27:00;;;;;;;8.35;4.80;;;;;;;;;;5037298;28;20104;-76
2022/04/06 05:29:25;;;;;;;7.72;4.07;;;;;;;;;;5038042;28;20060;-76
2022/04/06 05:31:50;;;;;;;8.97;4.20;;;;;;;;;;5037188;28;20021;-77
2022/04/06 05:34:16;;;;;;;6.32;4.13;;;;;;;;;;5038097;28;20255;-75
2022/04/06 05:36:41;;;;;;;6.88;4.07;;;;;;;;;;5037359;28;20478;-76
2022/04/06 05:39:08;;;;;;;5.00;3.63;;;;;;;;;;5039221;28;20060;-76
2022/04/06 05:41:34;;;;;;;5.40;3.95;;;;;;;;;;5040604;28;20045;-75
2022/04/06 05:43:59;;;;;;;7.15;4.25;;;;;;;;;;5039229;28;20490;-76
2022/04/06 05:46:24;;;;;;;5.30;3.80;;;;;;;;;;5039183;28;20041;-75
2022/04/06 05:48:49;;;;;;;4.78;3.53;;;;;;;;;;5038496;28;20439;-75
2022/04/06 05:51:15;;;;;;;5.50;3.90;;;;;;;;;;5040014;28;20048;-75
2022/04/06 05:53:40;;;;;;;5.85;3.50;;;;;;;;;;5036343;28;20029;-75
2022/04/06 05:56:05;;;;;;;5.15;3.58;;;;;;;;;;5038286;28;20029;-74
2022/04/06 05:58:30;;;;;;;6.40;4.03;;;;;;;;;;5039410;28;20432;-74
2022/04/06 06:00:56;;;;;;;6.43;3.20;;;;;;;;;;5038500;28;20410;-75
2022/04/06 06:03:21;;;;;;;5.57;3.50;;;;;;;;;;5038172;28;20670;-76
2022/04/06 06:05:46;;;;;;;6.75;3.97;;;;;;;;;;5036098;28;20627;-75
2022/04/06 06:08:11;;;;;;;6.07;3.60;;;;;;;;;;5034718;28;20053;-76
2022/04/06 06:10:37;;;;;;;6.30;3.77;;;;;;;;;;5034311;28;20029;-74
2022/04/06 06:13:02;;;;;;;6.15;3.15;;;;;;;;;;5034556;28;20317;-75
2022/04/06 06:15:27;;;;;;;5.15;3.65;;;;;;;;;;5034545;28;20096;-74
2022/04/06 06:17:53;;;;;;;6.43;4.38;;;;;;;;;;5034863;28;20025;-75
2022/04/06 06:20:18;;;;;;;8.23;4.63;;;;;;;;;;5033656;28;20059;-74
2022/04/06 06:22:44;;;;;;;6.57;4.72;;;;;;;;;;5034127;28;20119;-76
2022/04/06 06:25:09;;;;;;;6.97;4.35;;;;;;;;;;5034666;28;20037;-76
2022/04/06 06:27:42;;;;;;;6.80;5.03;;;;;;;;;;5034234;28;20183;-75
2022/04/06 06:30:11;;;;;;;8.57;5.10;;;;;;;;;;5034425;28;20037;-75
2022/04/06 06:32:36;;;;;;;8.65;5.20;;;;;;;;;;5032832;28;20094;-75
2022/04/06 06:35:01;;;;;;;6.25;4.32;;;;;;;;;;5034092;28;20033;-76
2022/04/06 06:37:26;;;;;;;8.13;4.80;;;;;;;;;;5034232;28;20049;-74
2022/04/06 06:39:54;;;;;;;3.97;2.97;;;;;;;;;;5034748;28;20018;-75
2022/04/06 06:42:19;;;;;;;7.22;4.25;;;;;;;;;;5035003;28;20541;-75
2022/04/06 06:44:45;;;;;;;6.57;4.27;;;;;;;;;;5034841;28;20025;-75
2022/04/06 06:47:10;;;;;;;6.07;3.92;;;;;;;;;;5034441;28;20273;-75
2022/04/06 06:49:35;;;;;;;8.63;4.77;;;;;;;;;;5033983;28;20389;-74
2022/04/06 06:52:00;;;;;;;7.82;4.85;;;;;;;;;;5033847;28;20692;-75
2022/04/06 06:54:26;;;;;;;9.35;5.70;;;;;;;;;;5034255;28;20021;-76
2022/04/06 06:56:51;;;;;;;8.18;4.97;;;;;;;;;;5033883;28;20112;-75
2022/04/06 06:59:16;;;;;;;6.85;4.85;;;;;;;;;;5035413;28;20021;-75
2022/04/06 07:01:41;;;;;;;9.83;5.40;;;;;;;;;;5034944;28;20026;-75
2022/04/06 07:04:07;;;;;;;9.38;5.18;;;;;;;;;;5034327;28;20265;-76
2022/04/06 07:06:32;;;;;;;7.63;5.18;;;;;;;;;;5034713;28;20026;-75
2022/04/06 07:08:57;;;;;;;8.43;4.97;;;;;;;;;;5034272;28;20036;-75
2022/04/06 07:11:23;;;;;;;7.30;4.95;;;;;;;;;;5033830;28;20028;-76
2022/04/06 07:13:48;;;;;;;10.03;5.03;;;;;;;;;;5034261;28;20028;-76
2022/04/06 07:16:15;;;;;;;8.13;4.53;;;;;;;;;;5033863;28;20301;-75
2022/04/06 07:18:40;;;;;;;8.65;5.00;;;;;;;;;;5034410;28;20104;-76
2022/04/06 07:21:05;;;;;;;8.23;4.63;;;;;;;;;;5034475;28;20087;-76
2022/04/06 07:23:31;;;;;;;10.70;4.88;;;;;;;;;;5034160;28;20053;-75
2022/04/06 07:25:56;;;;;;;7.43;4.78;;;;;;;;;;5034747;28;20027;-76
2022/04/06 07:28:21;;;;;;;8.93;4.85;;;;;;;;;;5033941;28;20022;-76
2022/04/06 07:30:46;;;;;;;11.07;5.63;;;;;;;;;;5035270;28;20363;-75
2022/04/06 07:33:15;;;;;;;8.80;5.07;;;;;;;;;;5034297;28;20061;-75
2022/04/06 07:35:40;;;;;;;9.30;5.38;;;;;;;;;;5035103;28;20259;-75
2022/04/06 07:38:06;;;;;;;8.13;4.82;;;;;;;;;;5034706;28;20018;-75
2022/04/06 07:40:32;;;;;;;6.63;4.57;;;;;;;;;;5034792;28;20071;-75
2022/04/06 07:42:57;;;;;;;8.00;4.93;;;;;;;;;;5033235;28;20025;-75
2022/04/06 07:45:24;;;;;;;10.82;4.50;;;;;;;;;;5034612;28;20026;-76
2022/04/06 07:47:50;;;;;;;6.63;4.57;;;;;;;;;;5034653;28;20112;-75
2022/04/06 07:50:18;;;;;;;8.63;5.00;;;;;;;;;;5034468;28;20030;-76
2022/04/06 07:52:44;;;;;;;7.78;4.63;;;;;;;;;;5034992;28;20444;-75
2022/04/06 07:55:11;;;;;;;7.22;4.07;;;;;;;;;;5033767;28;20030;-75
2022/04/06 07:57:38;;;;;;;6.75;3.58;;;;;;;;;;5034673;28;20021;-76
2022/04/06 08:00:05;;;;;;;6.22;3.58;;;;;;;;;;5034516;28;20494;-74
2022/04/06 08:02:31;;;;;;;5.70;3.20;;;;;;;;;;5036034;28;20116;-76
2022/04/06 08:04:56;;;;;;;8.00;3.22;;;;;;;;;;5038994;28;20558;-76
2022/04/06 08:07:21;;;;;;;5.83;3.10;;;;;;;;;;5038471;28;20124;-76
2022/04/06 08:09:47;;;;;;;4.45;3.10;;;;;;;;;;5038336;28;20385;-75
2022/04/06 08:12:12;;;;;;;6.17;2.80;;;;;;;;;;5039698;28;20445;-76
2022/04/06 08:14:37;;;;;;;3.72;2.58;;;;;;;;;;5040585;28;20735;-76
2022/04/06 08:17:04;;;;;;;3.55;2.42;;;;;;;;;;5041433;28;20026;-76
2022/04/06 08:19:29;;;;;;;4.97;2.60;;;;;;;;;;5041165;28;20033;-75
2022/04/06 08:21:55;;;;;;;3.72;2.58;;;;;;;;;;5040896;28;20060;-76
2022/04/06 08:24:20;;;;;;;3.13;2.50;;;;;;;;;;5041493;28;20050;-77
2022/04/06 08:26:46;;;;;;;3.65;2.50;;;;;;;;;;5040901;28;20022;-75
2022/04/06 08:29:12;;;;;;;5.53;3.00;;;;;;;;;;5040656;28;20478;-75
2022/04/06 08:31:40;;;;;;;4.03;2.65;;;;;;;;;;5040902;28;20100;-77
2022/04/06 08:34:06;;;;;;;3.85;2.50;;;;;;;;;;5042405;28;20033;-75
2022/04/06 08:36:31;;;;;;;4.70;2.70;;;;;;;;;;5042349;28;20437;-75
2022/04/06 08:38:57;;;;;;;6.50;2.30;;;;;;;;;;5041651;28;20128;-75
2022/04/06 08:41:26;;;;;;;4.28;2.53;;;;;;;;;;5041114;28;20443;-75
2022/04/06 08:43:51;;;;;;;4.32;2.45;;;;;;;;;;5042401;28;20025;-76
2022/04/06 08:46:17;;;;;;;4.50;2.70;;;;;;;;;;5039809;28;20036;-74
2022/04/06 08:48:43;;;;;;;4.00;2.08;;;;;;;;;;5042088;28;20026;-75
2022/04/06 08:51:09;;;;;;;3.88;2.30;;;;;;;;;;5041476;28;20017;-75
2022/04/06 08:53:39;;;;;;;7.22;2.38;;;;;;;;;;5042723;28;20029;-76
2022/04/06 08:56:05;;;;;;;3.67;2.30;;;;;;;;;;5041193;28;20032;-74
2022/04/06 08:58:30;;;;;;;5.28;2.17;;;;;;;;;;5036152;28;20087;-77
2022/04/06 09:00:56;;;;;;;4.95;2.20;;;;;;;;;;5036330;28;20021;-76
2022/04/06 09:03:22;;;;;;;6.38;2.10;;;;;;;;;;5038318;28;20018;-75
2022/04/06 09:05:59;;;;;;;2.85;2.33;;;;;;;;;;5038845;28;20049;-76
2022/04/06 09:08:46;;;;;;;4.45;2.13;;;;;;;;;;5037668;28;20470;-75
2022/04/06 09:11:14;;;;;;;3.50;2.30;;;;;;;;;;5037657;28;20399;-75
2022/04/06 09:13:41;;;;;;;3.85;2.22;;;;;;;;;;5037031;28;20466;-76
2022/04/06 09:16:09;;;;;;;5.60;2.33;;;;;;;;;;5037296;28;20033;-76
2022/04/06 09:18:34;;;;;;;3.97;2.40;;;;;;;;;;5035436;28;20026;-75
2022/04/06 09:21:01;;;;;;;5.60;2.50;;;;;;;;;;5036975;28;20068;-76
2022/04/06 09:23:29;;;;;;;7.18;2.50;;;;;;;;;;5036773;28;20033;-75
2022/04/06 09:25:54;;;;;;;5.70;2.70;;;;;;;;;;5036669;28;20030;-75
2022/04/06 09:28:19;;;;;;;6.00;2.40;;;;;;;;;;5036217;28;20024;-75
2022/04/06 09:30:45;;;;;;;3.93;2.27;;;;;;;;;;5034925;28;20064;-76
2022/04/06 09:33:19;;;;;;;5.45;2.63;;;;;;;;;;5036379;28;20259;-76
2022/04/06 09:35:45;;;;;;;;;;;;;;;;;;5036256;28;20502;-75
2022/04/06 09:38:32;;;;;;;3.10;2.05;;;;;;;;;;5036207;28;19931;-76
2022/04/06 09:41:03;;;;;;;3.90;2.60;;;;;;;;;;5035051;28;20033;-75
2022/04/06 09:43:33;;;;;;;2.85;2.38;;;;;;;;;;5036211;28;20029;-75
2022/04/06 09:49:14;;;;;;;3.65;2.75;;;;;;;;;;5035667;28;20047;-75
2022/04/06 09:51:41;;;;;;;4.28;2.53;;;;;;;;;;5035948;28;20030;-77
2022/04/06 09:54:08;;;;;;;4.22;2.50;;;;;;;;;;5034114;28;20040;-75
2022/04/06 09:56:35;;;;;;;4.20;2.28;;;;;;;;;;5034394;28;20078;-76
2022/04/06 09:59:02;;;;;;;2.95;2.28;;;;;;;;;;5034471;28;20029;-76
2022/04/06 10:01:41;;;;;;;4.25;2.67;;;;;;;;;;5034318;28;20029;-75
2022/04/06 10:04:10;;;;;;;5.55;3.00;;;;;;;;;;5036252;28;20040;-77
2022/04/06 10:06:38;;;;;;;3.35;2.15;;;;;;;;;;5036417;28;20025;-75
2022/04/06 10:09:06;;;;;;;3.97;2.35;;;;;;;;;;5035727;28;20029;-75
2022/04/06 10:11:33;;;;;;;3.97;2.35;;;;;;;;;;5033979;28;20035;-76
2022/04/06 10:14:00;;;;;;;3.30;2.30;;;;;;;;;;5035604;28;20030;-76
2022/04/06 10:16:26;;;;;;;2.72;2.15;;;;;;;;;;5034858;28;20030;-75
2022/04/06 10:18:52;;;;;;;2.67;2.15;;;;;;;;;;5033812;28;20025;-75
2022/04/06 10:21:23;;;;;;;3.60;2.40;;;;;;;;;;5035454;28;20021;-75
2022/04/06 10:24:12;;;;;;;3.38;2.40;;;;;;;;;;5034232;28;20029;-76
2022/04/06 10:27:04;;;;;;;4.97;2.22;;;;;;;;;;5035008;28;20394;-76
2022/04/06 10:29:29;;;;;;;3.22;2.10;;;;;;;;;;5033572;28;20022;-76
2022/04/06 10:31:54;;;;;;;4.85;2.00;;;;;;;;;;5034780;28;20025;-75
2022/04/06 10:34:25;;;;;;;4.05;2.17;;;;;;;;;;5034746;28;20025;-76
2022/04/06 10:37:11;;;;;;;3.53;2.20;;;;;;;;;;5034990;28;20064;-76
2022/04/06 10:39:57;;;;;;;3.53;2.30;;;;;;;;;;5034989;28;20021;-75
2022/04/06 10:42:36;;;;;;;4.22;2.25;;;;;;;;;;5033378;28;20437;-76
2022/04/06 10:45:28;;;;;;;3.03;2.17;;;;;;;;;;5033565;28;20033;-76
2022/04/06 10:48:13;;;;;;;3.58;2.28;;;;;;;;;;5035048;28;20451;-76
2022/04/06 10:50:40;;;;;;;7.22;2.50;;;;;;;;;;5033410;28;20024;-76
2022/04/06 10:53:26;;;;;;;4.35;2.10;;;;;;;;;;5034903;28;20406;-76
2022/04/06 10:56:16;;;;;;;4.85;2.30;;;;;;;;;;5034454;28;20030;-75
2022/04/06 10:58:57;;;;;;;4.45;2.22;;;;;;;;;;5034728;28;20129;-75
2022/04/06 11:01:29;;;;;;;5.25;2.92;;;;;;;;;;5034622;28;20021;-74
2022/04/06 11:04:04;;;;;;;4.03;2.35;;;;;;;;;;5035398;28;20037;-75
2022/04/06 11:06:44;;;;;;;5.18;2.28;;;;;;;;;;5033600;28;20061;-76
2022/04/06 11:12:28;;;;;;;4.70;2.03;;;;;;;;;;5035364;28;20406;-75
2022/04/06 11:14:59;;;;;;;5.55;2.17;;;;;;;;;;5034045;28;20033;-75
2022/04/06 11:17:32;;;;;;;4.30;2.20;;;;;;;;;;5035422;28;20022;-75
2022/04/06 11:20:03;;;;;;;4.10;2.33;;;;;;;;;;5034794;28;20028;-76
2022/04/06 11:22:29;;;;;;;5.05;2.15;;;;;;;;;;5035200;28;20029;-75
2022/04/06 11:24:55;;;;;;;3.40;2.30;;;;;;;;;;5033848;28;20043;-77
2022/04/06 11:27:29;;;;;;;3.17;2.03;;;;;;;;;;5032985;28;20132;-75
2022/04/06 11:30:18;;;;;;;5.22;2.30;;;;;;;;;;5034635;28;20081;-75
2022/04/06 11:32:55;;;;;;;4.05;2.42;;;;;;;;;;5033665;28;20406;-76
2022/04/06 11:35:26;;;;;;;4.70;2.47;;;;;;;;;;5032607;28;20025;-75
2022/04/06 11:37:51;;;;;;;4.63;2.25;;;;;;;;;;5040185;28;20025;-75
2022/04/06 11:40:18;;;;;;;6.25;2.55;;;;;;;;;;5041428;28;20018;-76
2022/04/06 11:42:48;;;;;;;5.70;2.85;;;;;;;;;;5041282;28;20029;-75
2022/04/06 11:45:37;;;;;;;2.97;2.22;;;;;;;;;;5041538;28;20025;-74
2022/04/06 11:48:06;;;;;;;4.32;2.58;;;;;;;;;;5040716;28;20025;-75
2022/04/06 11:50:34;;;;;;;3.13;2.30;;;;;;;;;;5040149;28;20049;-76
2022/04/06 11:53:04;;;;;;;4.13;2.55;;;;;;;;;;5040958;28;20026;-76
2022/04/06 11:55:50;;;;;;;3.45;2.28;;;;;;;;;;5040717;28;20509;-75
2022/04/06 11:58:37;;;;;;;5.22;2.42;;;;;;;;;;5040907;28;20029;-76
2022/04/06 12:01:07;;;;;;;4.57;2.50;;;;;;;;;;5040753;28;20013;-77
2022/04/06 12:03:36;;;;;;;3.83;2.22;;;;;;;;;;5039559;28;20052;-76
2022/04/06 12:06:03;;;;;;;5.00;2.70;;;;;;;;;;5041019;28;20025;-76
2022/04/06 12:08:31;;;;;;;4.93;2.58;;;;;;;;;;5039685;28;20144;-77
2022/04/06 12:10:57;;;;;;;4.90;2.40;;;;;;;;;;5040775;28;20021;-76
2022/04/06 12:13:24;;;;;;;4.18;2.85;;;;;;;;;;5039602;28;20609;-76
2022/04/06 12:15:50;;;;;;;4.82;2.78;;;;;;;;;;5039413;28;20049;-75
2022/04/06 12:18:19;;;;;;;4.13;2.60;;;;;;;;;;5040007;28;20039;-75
2022/04/06 12:20:49;;;;;;;4.03;2.40;;;;;;;;;;5042061;28;20059;-75
2022/04/06 12:23:15;;;;;;;5.18;2.47;;;;;;;;;;5040317;28;20071;-75
2022/04/06 12:25:42;;;;;;;4.13;2.83;;;;;;;;;;5041666;28;20120;-76
2022/04/06 12:28:13;;;;;;;4.43;2.53;;;;;;;;;;5041445;28;20040;-76
2022/04/06 12:30:53;;;;;;;3.15;2.58;;;;;;;;;;5039338;28;20418;-76
2022/04/06 12:33:41;;;;;;;4.78;2.50;;;;;;;;;;5040677;28;20124;-75
2022/04/06 12:36:12;;;;;;;4.13;2.55;;;;;;;;;;5042081;28;20064;-76
2022/04/06 12:38:39;;;;;;;4.38;2.60;;;;;;;;;;5040055;28;20017;-75
2022/04/06 12:41:07;;;;;;;3.95;2.38;;;;;;;;;;5040295;28;20083;-76
2022/04/06 12:43:36;;;;;;;4.05;2.80;;;;;;;;;;5040655;28;20068;-76
2022/04/06 12:46:01;;;;;;;5.47;2.35;;;;;;;;;;5040312;28;20021;-75
2022/04/06 12:48:28;;;;;;;3.47;2.45;;;;;;;;;;5038361;28;20531;-76
2022/04/06 12:50:53;;;;;;;4.13;2.83;;;;;;;;;;5038304;28;20025;-76
2022/04/06 12:53:20;;;;;;;4.32;2.60;;;;;;;;;;5037993;28;20025;-76
2022/04/06 12:55:45;;;;;;;4.40;2.67;;;;;;;;;;5036814;28;20494;-76
2022/04/06 12:58:19;;;;;;;3.67;2.75;;;;;;;;;;5038093;28;20108;-75
2022/04/06 13:00:45;;;;;;;3.75;2.50;;;;;;;;;;5037866;28;20021;-75
2022/04/06 13:03:11;;;;;;;4.85;2.70;;;;;;;;;;5037593;28;20079;-77
2022/04/06 13:05:36;;;;;;;4.32;2.83;;;;;;;;;;5038113;28;20033;-75
2022/04/06 13:08:02;;;;;;;5.00;2.80;;;;;;;;;;5035879;28;20040;-76
2022/04/06 13:10:28;;;;;;;3.33;2.30;;;;;;;;;;5037021;28;20021;-75
2022/04/06 13:12:54;;;;;;;4.03;2.60;;;;;;;;;;5037312;28;20429;-76
2022/04/06 13:15:19;;;;;;;5.55;2.70;;;;;;;;;;5037037;28;20196;-76
2022/04/06 13:17:49;;;;;;;4.87;2.80;;;;;;;;;;5037103;28;20458;-75
2022/04/06 13:20:17;;;;;;;5.15;2.70;;;;;;;;;;5035438;28;20684;-76
2022/04/06 13:22:43;;;;;;;4.53;2.60;;;;;;;;;;5036198;28;20084;-74
2022/04/06 13:25:10;;;;;;;3.22;2.50;;;;;;;;;;5036397;28;20033;-75
2022/04/06 13:27:37;;;;;;;5.25;2.35;;;;;;;;;;5036089;28;20032;-76
2022/04/06 13:30:03;;;;;;;4.07;2.58;;;;;;;;;;5034961;28;20022;-76
2022/04/06 13:32:29;;;;;;;3.70;2.58;;;;;;;;;;5035864;28;20071;-76
2022/04/06 13:34:54;;;;;;;4.78;2.28;;;;;;;;;;5035915;28;20112;-77
2022/04/06 13:37:19;;;;;;;5.80;2.30;;;;;;;;;;5035668;28;20033;-77
2022/04/06 13:39:45;;;;;;;4.28;2.60;;;;;;;;;;5036822;28;20033;-75
2022/04/06 13:42:11;;;;;;;4.45;2.60;;;;;;;;;;5035804;28;20057;-75
2022/04/06 13:44:36;;;;;;;4.18;2.45;;;;;;;;;;5036079;28;20560;-75
2022/04/06 13:47:03;;;;;;;4.30;2.35;;;;;;;;;;5035535;28;20030;-75
2022/04/06 13:49:28;;;;;;;4.35;2.42;;;;;;;;;;5035783;28;20108;-75
2022/04/06 13:51:57;;;;;;;4.60;2.47;;;;;;;;;;5034305;28;20454;-75
2022/04/06 13:54:24;;;;;;;5.88;2.47;;;;;;;;;;5035374;28;20025;-76
2022/04/06 13:56:50;;;;;;;4.63;2.55;;;;;;;;;;5035646;28;20092;-74
2022/04/06 13:59:16;;;;;;;3.88;2.30;;;;;;;;;;5034882;28;20034;-75
2022/04/06 14:01:43;;;;;;;7.07;2.60;;;;;;;;;;5035541;28;20037;-76
2022/04/06 14:04:09;;;;;;;6.18;2.67;;;;;;;;;;5035445;28;20394;-76
2022/04/06 14:06:34;;;;;;;5.07;2.45;;;;;;;;;;5033866;28;20029;-77
2022/04/06 14:09:00;;;;;;;3.00;2.03;;;;;;;;;;5034881;28;20432;-76
2022/04/06 14:11:25;;;;;;;4.10;2.33;;;;;;;;;;5033738;28;20022;-76
2022/04/06 14:13:51;;;;;;;9.52;2.22;;;;;;;;;;5035078;28;20044;-76
2022/04/06 14:16:18;;;;;;;3.50;2.10;;;;;;;;;;5033742;28;20029;-75
2022/04/06 14:18:44;;;;;;;5.88;2.30;;;;;;;;;;5035105;28;20032;-76
2022/04/06 14:21:09;;;;;;;4.20;2.25;;;;;;;;;;5034826;28;20017;-76
2022/04/06 14:23:38;;;;;;;4.50;2.40;;;;;;;;;;5035150;28;20035;-76
2022/04/06 14:26:07;;;;;;;3.42;2.30;;;;;;;;;;5033724;28;20021;-76
2022/04/06 14:28:34;;;;;;;4.60;2.40;;;;;;;;;;5034821;28;20116;-75
2022/04/06 14:31:00;;;;;;;4.43;2.20;;;;;;;;;;5033777;28;20025;-77
2022/04/06 14:33:25;;;;;;;5.03;2.30;;;;;;;;;;5035763;28;20032;-76
2022/04/06 14:35:50;;;;;;;2.80;2.00;;;;;;;;;;5035271;28;20254;-76
2022/04/06 14:38:16;;;;;;;4.90;2.23;;;;;;;;;;5035050;28;20033;-76
2022/04/06 14:40:47;;;;;;;3.42;2.10;;;;;;;;;;5033519;28;20282;-75
2022/04/06 14:43:13;;;;;;;8.07;2.45;;;;;;;;;;5035027;28;20025;-76
2022/04/06 14:45:54;;;;;;;4.97;2.60;;;;;;;;;;5035130;28;20032;-76
2022/04/06 14:48:20;;;;;;;5.70;2.20;;;;;;;;;;5034395;28;20025;-77
2022/04/06 14:50:45;;;;;;;4.22;2.60;;;;;;;;;;5035178;28;20509;-74
2022/04/06 14:53:14;;;;;;;3.83;2.40;;;;;;;;;;5035661;28;20025;-76
2022/04/06 14:55:40;;;;;;;2.55;2.00;;;;;;;;;;5033788;28;20108;-75